Time;durP1;ratioP1;P1;durP2;ratioP2;P2;SDS_P1;SDS_P2;PMS_P1;PMS_P2;Temp;Humidity;BMP_temperature;BMP_pressure;BME280_temperature;BME280_humidity;BME280_pressure;Samples;Min_cycle;Max_cycle;Signal;HPM_P1;HPM_P2
2022/04/11 00:02:24;;;;;;;3.50;2.65;;;2.20;99.90;;;;;;5086414;28;20021;-82
2022/04/11 00:04:50;;;;;;;3.80;2.22;;;2.20;99.90;;;;;;5081456;28;20155;-83
2022/04/11 00:07:16;;;;;;;4.05;2.90;;;2.10;99.90;;;;;;5081277;28;20021;-82
2022/04/11 00:09:44;;;;;;;3.92;3.28;;;2.20;99.90;;;;;;5081557;28;20031;-83
2022/04/11 00:12:10;;;;;;;4.32;2.95;;;2.10;99.90;;;;;;5082000;28;20025;-83
2022/04/11 00:14:37;;;;;;;4.40;2.92;;;2.10;99.90;;;;;;5080679;28;20044;-82
2022/04/11 00:17:03;;;;;;;5.68;2.90;;;2.10;99.90;;;;;;5082341;28;20029;-82
2022/04/11 00:19:29;;;;;;;3.67;2.90;;;2.10;99.90;;;;;;5080470;28;20028;-82
2022/04/11 00:21:55;;;;;;;4.68;2.47;;;2.10;99.90;;;;;;5083200;28;20030;-81
2022/04/11 00:24:21;;;;;;;3.55;2.50;;;2.10;99.90;;;;;;5082563;28;20048;-81
2022/04/11 00:26:47;;;;;;;4.30;2.63;;;2.00;99.90;;;;;;5081556;28;20032;-82
2022/04/11 00:29:13;;;;;;;3.92;2.97;;;2.00;99.90;;;;;;5082464;28;20044;-82
2022/04/11 00:31:38;;;;;;;3.03;2.47;;;2.00;99.90;;;;;;5083639;28;20028;-81
2022/04/11 00:34:04;;;;;;;3.58;2.17;;;2.00;99.90;;;;;;5079877;28;20044;-82
2022/04/11 00:36:30;;;;;;;3.08;2.38;;;2.00;99.90;;;;;;5072210;28;20119;-82
2022/04/11 00:38:56;;;;;;;3.08;2.03;;;2.00;99.90;;;;;;5068588;28;20100;-81
2022/04/11 00:41:21;;;;;;;4.65;2.42;;;2.00;99.90;;;;;;5076197;28;20036;-82
2022/04/11 00:43:47;;;;;;;4.05;2.08;;;2.00;99.90;;;;;;5078551;28;20075;-82
2022/04/11 00:46:13;;;;;;;2.60;2.03;;;2.00;99.90;;;;;;5079316;28;20029;-82
2022/04/11 00:48:40;;;;;;;2.53;1.98;;;2.00;99.90;;;;;;5079539;28;20017;-82
2022/04/11 00:51:08;;;;;;;4.65;2.20;;;2.00;99.90;;;;;;5078989;28;20029;-82
2022/04/11 00:53:38;;;;;;;1.98;1.48;;;1.90;99.90;;;;;;5079193;28;20032;-83
2022/04/11 00:56:06;;;;;;;3.17;2.10;;;1.90;99.90;;;;;;5080669;28;20016;-82
2022/04/11 00:58:34;;;;;;;3.20;1.85;;;1.90;99.90;;;;;;5084275;28;20017;-82
2022/04/11 01:01:00;;;;;;;3.78;1.90;;;1.90;99.90;;;;;;5085424;28;20055;-82
2022/04/11 01:03:26;;;;;;;2.63;1.73;;;1.90;99.90;;;;;;5085507;28;20021;-82
2022/04/11 01:05:51;;;;;;;5.05;2.10;;;1.90;99.90;;;;;;5087608;28;20043;-82
2022/04/11 01:08:17;;;;;;;2.25;2.05;;;1.90;99.90;;;;;;5096800;28;20027;-82
2022/04/11 01:10:43;;;;;;;3.90;2.10;;;1.90;99.90;;;;;;5098296;28;20096;-82
2022/04/11 01:13:09;;;;;;;2.30;1.65;;;1.90;99.90;;;;;;5097985;28;20030;-82
2022/04/11 01:15:35;;;;;;;2.28;1.85;;;1.80;99.90;;;;;;5093600;28;20214;-82
2022/04/11 01:18:00;;;;;;;3.42;2.17;;;1.80;99.90;;;;;;5084962;28;20080;-82
2022/04/11 01:20:26;;;;;;;2.33;1.50;;;1.80;99.90;;;;;;5085593;28;20103;-82
2022/04/11 01:22:52;;;;;;;3.63;1.90;;;1.80;99.90;;;;;;5085208;28;20025;-82
2022/04/11 01:25:19;;;;;;;3.28;1.67;;;1.80;99.90;;;;;;5086113;28;20028;-82
2022/04/11 01:27:48;;;;;;;1.75;1.30;;;1.80;99.90;;;;;;5086249;28;20020;-82
2022/04/11 01:30:15;;;;;;;2.28;1.65;;;1.80;99.90;;;;;;5086862;28;20025;-82
2022/04/11 01:32:41;;;;;;;2.70;1.83;;;1.80;99.90;;;;;;5090328;28;20048;-82
2022/04/11 01:35:22;;;;;;;3.10;1.80;;;1.80;99.90;;;;;;5087160;28;20033;-82
2022/04/11 01:37:48;;;;;;;1.88;1.50;;;1.80;99.90;;;;;;5086637;28;20464;-82
2022/04/11 01:40:14;;;;;;;3.85;1.92;;;1.80;99.90;;;;;;5088363;28;20021;-82
2022/04/11 01:42:39;;;;;;;2.38;1.55;;;1.80;99.90;;;;;;5090512;28;20021;-83
2022/04/11 01:45:09;;;;;;;1.70;1.52;;;1.80;99.90;;;;;;5089109;28;20152;-82
2022/04/11 01:47:40;;;;;;;2.10;1.70;;;1.80;99.90;;;;;;5087608;28;20024;-83
2022/04/11 01:50:10;;;;;;;1.88;1.67;;;1.70;99.90;;;;;;5069639;28;20021;-83
2022/04/11 01:52:35;;;;;;;1.77;1.42;;;1.70;99.90;;;;;;5069494;28;20029;-82
2022/04/11 01:55:02;;;;;;;1.40;1.30;;;1.70;99.90;;;;;;5087599;28;20025;-82
2022/04/11 01:57:28;;;;;;;2.13;1.63;;;1.70;99.90;;;;;;5067796;28;20020;-82
2022/04/11 01:59:54;;;;;;;2.03;1.30;;;1.70;99.90;;;;;;5085232;28;20025;-81
2022/04/11 02:02:20;;;;;;;1.65;1.55;;;1.70;99.90;;;;;;5067067;28;20028;-81
2022/04/11 02:04:45;;;;;;;1.50;1.40;;;1.70;99.90;;;;;;5085548;28;20100;-82
2022/04/11 02:07:11;;;;;;;2.33;1.52;;;1.80;99.90;;;;;;5085792;28;20080;-82
2022/04/11 02:09:37;;;;;;;2.58;1.27;;;1.80;99.90;;;;;;5083674;28;20169;-81
2022/04/11 02:12:03;;;;;;;1.60;1.30;;;1.80;99.90;;;;;;5086128;28;20017;-83
2022/04/11 02:14:28;;;;;;;1.20;1.10;;;1.80;99.90;;;;;;5085199;28;20484;-83
2022/04/11 02:16:54;;;;;;;1.30;1.20;;;1.80;99.90;;;;;;5085418;28;20020;-82
2022/04/11 02:19:20;;;;;;;1.50;1.40;;;1.80;99.90;;;;;;5085484;28;20029;-83
2022/04/11 02:21:45;;;;;;;1.67;1.30;;;1.90;99.90;;;;;;5086014;28;20135;-82
2022/04/11 02:24:11;;;;;;;1.45;1.30;;;1.90;99.90;;;;;;5090670;28;20102;-82
2022/04/11 02:26:37;;;;;;;3.03;1.45;;;1.90;99.90;;;;;;5091966;28;20040;-82
2022/04/11 02:29:02;;;;;;;2.20;1.30;;;2.00;99.90;;;;;;5091479;28;20055;-82
2022/04/11 02:31:28;;;;;;;1.60;1.40;;;2.00;99.90;;;;;;5073416;28;20086;-82
2022/04/11 02:33:54;;;;;;;2.67;1.48;;;2.00;99.90;;;;;;5068355;28;20036;-82
2022/04/11 02:36:19;;;;;;;2.55;1.45;;;2.00;99.90;;;;;;5086403;28;20028;-82
2022/04/11 02:38:45;;;;;;;2.22;1.45;;;2.00;99.90;;;;;;5093049;22;20568;-78
2022/04/11 02:41:11;;;;;;;1.85;1.42;;;2.00;99.90;;;;;;5060058;28;20078;-79
2022/04/11 02:43:36;;;;;;;1.98;1.60;;;2.00;99.90;;;;;;5081360;28;20062;-78
2022/04/11 02:46:02;;;;;;;2.60;1.42;;;2.00;99.90;;;;;;5079039;28;20216;-78
2022/04/11 02:48:28;;;;;;;4.20;1.70;;;2.00;99.90;;;;;;5080741;28;20024;-79
2022/04/11 02:50:53;;;;;;;2.53;1.60;;;1.90;99.90;;;;;;5067626;28;20031;-78
2022/04/11 02:53:19;;;;;;;1.50;1.20;;;2.00;99.90;;;;;;5097486;28;20052;-78
2022/04/11 02:55:45;;;;;;;1.40;1.15;;;1.90;99.90;;;;;;5081959;28;20029;-79
2022/04/11 02:58:10;;;;;;;1.60;1.50;;;1.90;99.90;;;;;;5079483;28;20072;-79
2022/04/11 03:00:36;;;;;;;3.72;1.23;;;1.80;99.90;;;;;;5080594;28;20028;-78
2022/04/11 03:03:03;;;;;;;2.05;1.40;;;1.80;99.90;;;;;;5079341;28;20100;-77
2022/04/11 03:05:29;;;;;;;2.85;1.33;;;1.80;99.90;;;;;;5077691;28;20096;-78
2022/04/11 03:07:55;;;;;;;2.33;1.35;;;1.80;99.90;;;;;;5061666;28;20063;-78
2022/04/11 03:10:21;;;;;;;1.73;1.42;;;1.80;99.90;;;;;;5056032;28;20025;-78
2022/04/11 03:12:46;;;;;;;2.33;1.38;;;1.80;99.90;;;;;;5055974;28;20445;-79
2022/04/11 03:15:12;;;;;;;1.40;1.05;;;1.80;99.90;;;;;;5056422;28;20490;-78
2022/04/11 03:17:38;;;;;;;1.73;1.08;;;1.80;99.90;;;;;;5055993;28;20029;-79
2022/04/11 03:20:04;;;;;;;2.13;0.98;;;1.80;99.90;;;;;;5075928;28;20021;-80
2022/04/11 03:22:30;;;;;;;1.35;1.10;;;1.90;99.90;;;;;;5079131;28;20062;-79
2022/04/11 03:24:55;;;;;;;1.65;1.00;;;1.90;99.90;;;;;;5078854;28;20151;-79
2022/04/11 03:27:21;;;;;;;1.70;1.10;;;1.90;99.90;;;;;;5078802;28;20025;-79
2022/04/11 03:29:47;;;;;;;1.60;0.93;;;1.80;99.90;;;;;;5072274;28;20021;-80
2022/04/11 03:32:12;;;;;;;0.82;0.82;;;1.80;99.90;;;;;;5062047;28;20064;-79
2022/04/11 03:34:38;;;;;;;1.73;1.30;;;1.90;99.90;;;;;;5069252;28;20025;-77
2022/04/11 03:37:04;;;;;;;3.40;1.60;;;1.80;99.90;;;;;;5083402;28;20044;-78
2022/04/11 03:39:30;;;;;;;2.85;1.40;;;1.80;99.80;;;;;;5074602;28;20393;-78
2022/04/11 03:41:57;;;;;;;1.90;1.00;;;1.80;99.90;;;;;;5076326;28;20121;-78
2022/04/11 03:44:23;;;;;;;1.20;1.15;;;1.80;99.90;;;;;;5076070;28;20035;-79
2022/04/11 03:46:48;;;;;;;1.23;1.13;;;1.80;99.90;;;;;;5058231;28;20029;-79
2022/04/11 03:49:14;;;;;;;1.80;1.00;;;1.80;99.90;;;;;;5076568;28;20068;-78
2022/04/11 03:51:40;;;;;;;2.92;1.40;;;1.90;99.90;;;;;;5077383;28;20111;-79
2022/04/11 03:54:06;;;;;;;3.33;1.40;;;1.80;99.90;;;;;;5079383;28;20024;-79
2022/04/11 03:56:31;;;;;;;1.38;1.27;;;1.80;99.90;;;;;;5079437;28;20025;-79
2022/04/11 03:58:57;;;;;;;1.80;1.10;;;1.80;99.90;;;;;;5078260;28;20053;-80
2022/04/11 04:01:23;;;;;;;1.25;1.15;;;1.90;99.90;;;;;;5079979;28;20040;-80
2022/04/11 04:03:48;;;;;;;2.58;1.38;;;1.80;99.90;;;;;;5079543;28;20067;-80
2022/04/11 04:06:14;;;;;;;1.40;1.00;;;1.90;99.80;;;;;;5079277;28;20032;-79
2022/04/11 04:08:40;;;;;;;1.92;1.40;;;1.90;99.80;;;;;;5066672;28;20033;-79
2022/04/11 04:11:06;;;;;;;1.73;1.23;;;1.90;99.80;;;;;;5059362;28;20465;-79
2022/04/11 04:13:34;;;;;;;1.45;1.10;;;1.90;99.70;;;;;;5057059;28;20021;-78
2022/04/11 04:16:00;;;;;;;2.97;1.13;;;1.90;99.70;;;;;;5058610;28;20044;-79
2022/04/11 04:18:25;;;;;;;1.27;1.00;;;1.90;99.70;;;;;;5058778;28;20017;-79
2022/04/11 04:20:51;;;;;;;2.03;1.15;;;1.90;99.70;;;;;;5058984;28;20048;-78
2022/04/11 04:23:17;;;;;;;1.92;1.10;;;1.90;99.60;;;;;;5058227;28;20013;-79
2022/04/11 04:25:43;;;;;;;1.20;0.90;;;1.90;99.50;;;;;;5060623;28;20075;-78
2022/04/11 04:28:08;;;;;;;1.10;0.90;;;1.80;99.40;;;;;;5060866;28;20018;-79
2022/04/11 04:30:34;;;;;;;1.77;0.90;;;1.80;99.30;;;;;;5056908;28;20036;-79
2022/04/11 04:33:00;;;;;;;1.42;1.10;;;1.90;99.40;;;;;;5062422;28;20021;-80
2022/04/11 04:35:26;;;;;;;1.95;1.20;;;1.90;99.30;;;;;;5067738;28;20024;-79
2022/04/11 04:37:52;;;;;;;1.48;1.08;;;1.90;99.10;;;;;;5073046;28;20021;-79
2022/04/11 04:40:18;;;;;;;2.03;1.52;;;1.90;99.00;;;;;;5080575;28;20040;-80
2022/04/11 04:42:44;;;;;;;2.50;1.23;;;1.90;99.00;;;;;;5081114;28;20032;-80
2022/04/11 04:45:10;;;;;;;3.72;1.10;;;1.90;98.90;;;;;;5081550;28;20025;-79
2022/04/11 04:47:35;;;;;;;2.42;1.20;;;1.90;98.80;;;;;;5080837;28;20234;-79
2022/04/11 04:50:01;;;;;;;3.80;1.50;;;1.90;98.90;;;;;;5081778;28;20034;-79
2022/04/11 04:52:27;;;;;;;2.38;1.48;;;1.90;98.70;;;;;;5082029;28;20052;-79
2022/04/11 04:54:52;;;;;;;1.77;1.42;;;2.00;98.60;;;;;;5063928;28;20031;-79
2022/04/11 04:57:18;;;;;;;1.30;0.98;;;2.00;98.60;;;;;;5081343;28;20031;-79
2022/04/11 04:59:44;;;;;;;1.90;1.05;;;2.10;98.60;;;;;;5083651;28;20037;-79
2022/04/11 05:02:10;;;;;;;1.45;1.13;;;2.20;98.60;;;;;;5072895;28;20016;-80
2022/04/11 05:04:35;;;;;;;1.10;1.00;;;2.20;98.40;;;;;;5086901;28;20017;-79
2022/04/11 05:07:01;;;;;;;1.45;1.30;;;2.30;98.10;;;;;;5080886;28;20029;-79
2022/04/11 05:09:27;;;;;;;1.60;1.30;;;2.30;97.90;;;;;;5079659;28;20024;-77
2022/04/11 05:11:54;;;;;;;3.72;1.45;;;2.40;97.90;;;;;;5078474;28;20037;-79
2022/04/11 05:14:19;;;;;;;2.40;1.23;;;2.40;97.80;;;;;;5064517;28;20028;-79
2022/04/11 05:16:45;;;;;;;2.10;1.42;;;2.60;97.80;;;;;;5063772;28;20031;-80
2022/04/11 05:19:10;;;;;;;1.60;1.27;;;2.70;97.60;;;;;;5045180;28;20439;-80
2022/04/11 05:21:37;;;;;;;1.67;1.05;;;3.00;97.30;;;;;;5044762;28;20514;-80
2022/04/11 05:24:03;;;;;;;1.40;1.30;;;3.10;96.60;;;;;;5061912;28;20401;-79
2022/04/11 05:26:29;;;;;;;1.92;1.33;;;3.10;95.90;;;;;;5062512;28;20073;-80
2022/04/11 05:28:57;;;;;;;1.20;1.10;;;3.30;95.60;;;;;;5044401;28;20045;-80
2022/04/11 05:31:23;;;;;;;2.10;1.55;;;3.30;95.00;;;;;;5063414;28;20446;-79
2022/04/11 05:33:49;;;;;;;2.35;1.30;;;3.50;94.80;;;;;;5049688;28;20024;-80
2022/04/11 05:36:14;;;;;;;2.50;1.33;;;3.50;94.30;;;;;;5075399;28;20291;-80
2022/04/11 05:41:22;;;;;;;2.55;1.73;;;3.50;94.00;;;;;;1498351;26;20037;-80
2022/04/11 05:43:48;;;;;;;3.88;1.58;;;3.70;93.90;;;;;;5085271;28;20024;-81
2022/04/11 05:46:14;;;;;;;2.25;1.58;;;3.90;93.20;;;;;;5084894;28;20392;-80
2022/04/11 05:48:40;;;;;;;4.00;1.63;;;4.00;92.80;;;;;;5084205;28;20055;-80
2022/04/11 05:51:06;;;;;;;1.45;1.13;;;4.10;92.30;;;;;;5083153;28;20017;-80
2022/04/11 05:53:34;;;;;;;3.40;1.63;;;4.10;91.90;;;;;;5083919;28;20004;-80
2022/04/11 05:55:59;;;;;;;2.38;1.58;;;4.20;91.60;;;;;;5083277;28;20046;-79
2022/04/11 05:58:25;;;;;;;5.20;1.55;;;4.30;91.40;;;;;;5079435;28;20080;-80
2022/04/11 06:00:51;;;;;;;3.80;1.55;;;4.40;91.10;;;;;;5079099;28;20031;-80
2022/04/11 06:03:16;;;;;;;4.07;1.40;;;4.40;90.80;;;;;;5089526;28;20016;-80
2022/04/11 06:05:42;;;;;;;1.88;1.63;;;4.40;90.60;;;;;;5088041;28;20048;-81
2022/04/11 06:08:08;;;;;;;3.63;2.22;;;4.30;90.50;;;;;;5074207;28;20024;-79
2022/04/11 06:10:35;;;;;;;3.17;1.45;;;4.30;90.40;;;;;;5098973;28;20435;-80
2022/04/11 06:13:01;;;;;;;2.83;1.70;;;4.40;90.30;;;;;;5102162;28;20016;-80
2022/04/11 06:15:26;;;;;;;1.38;1.27;;;4.30;90.00;;;;;;5101777;28;20111;-80
2022/04/11 06:17:52;;;;;;;4.13;1.35;;;4.40;90.10;;;;;;5100107;28;20426;-80
2022/04/11 06:26:09;;;;;;;2.60;2.13;;;4.60;89.30;;;;;;5074182;28;20035;-80
2022/04/11 06:28:35;;;;;;;2.58;1.45;;;4.80;88.90;;;;;;5062274;28;20026;-79
2022/04/11 06:31:01;;;;;;;3.17;1.45;;;5.00;88.40;;;;;;5046706;28;20029;-80
2022/04/11 06:33:26;;;;;;;3.80;1.58;;;5.00;87.50;;;;;;5065048;28;20029;-79
2022/04/11 06:35:52;;;;;;;3.30;1.75;;;5.00;87.30;;;;;;5071831;28;20020;-79
2022/04/11 06:38:18;;;;;;;2.83;2.03;;;5.00;86.70;;;;;;5081317;28;20013;-80
2022/04/11 06:40:43;;;;;;;2.17;1.70;;;5.10;86.70;;;;;;5072585;28;20087;-79
2022/04/11 06:43:09;;;;;;;6.40;1.92;;;5.20;86.60;;;;;;5060675;28;20122;-79
2022/04/11 06:45:35;;;;;;;4.38;1.95;;;5.20;86.20;;;;;;5061439;28;20032;-79
2022/04/11 06:48:00;;;;;;;5.93;1.75;;;5.30;85.50;;;;;;5058133;28;20040;-80
2022/04/11 06:58:13;;;;;;;4.38;1.88;;;5.20;87.10;;;;;;5085233;26;20106;-81
2022/04/11 07:00:38;;;;;;;1.85;1.20;;;5.50;87.00;;;;;;5083646;28;20021;-80
2022/04/11 07:03:07;;;;;;;2.85;1.85;;;5.60;85.80;;;;;;5063861;28;20016;-81
2022/04/11 07:05:43;;;;;;;2.58;1.70;;;5.70;84.80;;;;;;5083266;28;20028;-83
2022/04/11 07:08:09;;;;;;;1.88;1.40;;;5.60;83.40;;;;;;5064194;28;20027;-80
2022/04/11 07:10:37;;;;;;;1.45;1.23;;;5.30;83.00;;;;;;5071958;28;20056;-81
2022/04/11 07:13:03;;;;;;;3.00;1.65;;;5.10;84.00;;;;;;5062482;28;20021;-81
2022/04/11 07:15:32;;;;;;;2.88;1.77;;;5.10;84.90;;;;;;5064298;28;20060;-82
2022/04/11 07:18:01;;;;;;;2.17;1.63;;;5.10;84.90;;;;;;5062615;28;20029;-81
2022/04/11 07:20:29;;;;;;;2.20;1.80;;;5.20;84.60;;;;;;5063018;28;20017;-80
2022/04/11 07:22:57;;;;;;;1.17;1.08;;;5.40;84.20;;;;;;5070232;28;20077;-80
2022/04/11 07:25:24;;;;;;;1.55;1.45;;;5.60;83.50;;;;;;5072193;28;20048;-79
2022/04/11 07:27:51;;;;;;;2.53;1.48;;;5.80;82.80;;;;;;5062730;28;20029;-78
2022/04/11 07:30:17;;;;;;;2.13;1.65;;;5.90;82.00;;;;;;5061856;28;20021;-80
2022/04/11 07:32:43;;;;;;;2.50;1.70;;;6.00;81.80;;;;;;5061894;28;20021;-81
2022/04/11 07:35:09;;;;;;;4.90;1.90;;;6.10;81.40;;;;;;5065157;28;20039;-80
2022/04/11 07:37:35;;;;;;;2.90;1.98;;;6.30;80.80;;;;;;5078624;28;20044;-79
2022/04/11 07:40:01;;;;;;;1.98;1.40;;;6.50;80.00;;;;;;5088761;28;20037;-80
2022/04/11 07:42:27;;;;;;;2.10;1.75;;;6.90;79.10;;;;;;5085318;28;20099;-81
2022/04/11 07:44:53;;;;;;;2.38;1.55;;;7.10;77.40;;;;;;5087064;28;20024;-81
2022/04/11 07:47:19;;;;;;;1.73;1.40;;;7.20;76.90;;;;;;5087635;28;20111;-81
2022/04/11 07:49:45;;;;;;;1.73;1.35;;;7.40;76.20;;;;;;5085869;28;20060;-79
2022/04/11 07:52:10;;;;;;;5.63;2.10;;;7.60;75.90;;;;;;5087832;28;20017;-81
2022/04/11 07:54:36;;;;;;;5.72;1.88;;;7.90;73.70;;;;;;5084481;28;20032;-80
2022/04/11 07:57:03;;;;;;;2.83;1.75;;;8.20;72.80;;;;;;5087225;28;20047;-81
2022/04/11 07:59:29;;;;;;;4.00;1.80;;;8.30;71.80;;;;;;5069158;28;20048;-80
2022/04/11 08:01:54;;;;;;;3.13;1.80;;;8.20;70.70;;;;;;5067252;28;20139;-82
2022/04/11 08:04:20;;;;;;;6.03;2.50;;;8.30;71.20;;;;;;5084231;28;20042;-82
2022/04/11 08:06:46;;;;;;;3.25;1.80;;;8.60;70.50;;;;;;5087324;28;20020;-81
2022/04/11 08:09:11;;;;;;;2.17;1.88;;;9.10;69.20;;;;;;5089728;28;20027;-82
2022/04/11 08:11:37;;;;;;;2.30;2.05;;;9.60;67.80;;;;;;5090353;28;20473;-81
2022/04/11 08:14:03;;;;;;;3.85;1.90;;;9.70;65.20;;;;;;5088496;28;20036;-80
2022/04/11 08:16:29;;;;;;;3.30;1.90;;;9.70;65.20;;;;;;5088589;28;20025;-81
2022/04/11 08:18:54;;;;;;;3.20;1.77;;;9.90;63.80;;;;;;5089310;28;20029;-80
2022/04/11 08:21:20;;;;;;;1.48;1.10;;;10.00;62.90;;;;;;5091310;28;20459;-80
2022/04/11 08:23:46;;;;;;;1.40;1.30;;;10.10;61.90;;;;;;5091548;28;20051;-82
2022/04/11 08:26:12;;;;;;;1.90;1.23;;;10.20;61.50;;;;;;5090090;28;20473;-82
2022/04/11 08:28:37;;;;;;;5.60;1.95;;;10.20;61.60;;;;;;5088043;28;20074;-80
2022/04/11 08:31:03;;;;;;;4.40;1.70;;;10.00;58.60;;;;;;5091958;28;20063;-80
2022/04/11 08:33:29;;;;;;;2.60;1.38;;;9.40;58.90;;;;;;5094366;28;20078;-81
2022/04/11 08:35:54;;;;;;;2.65;1.20;;;9.10;60.30;;;;;;5086869;28;20017;-80
2022/04/11 08:38:20;;;;;;;3.28;1.58;;;9.10;61.00;;;;;;5085346;28;20461;-81
2022/04/11 08:40:46;;;;;;;1.83;1.58;;;9.30;60.80;;;;;;5111527;22;20044;-82
2022/04/11 08:43:14;;;;;;;1.67;1.40;;;9.50;60.50;;;;;;5086789;28;20033;-81
2022/04/11 08:45:40;;;;;;;2.78;1.42;;;9.90;60.30;;;;;;5085005;28;20020;-82
2022/04/11 08:48:07;;;;;;;2.90;1.30;;;10.20;59.60;;;;;;5086138;28;20021;-81
2022/04/11 08:50:32;;;;;;;2.20;1.55;;;10.50;58.80;;;;;;5089177;28;20024;-83
2022/04/11 08:52:58;;;;;;;5.13;2.00;;;10.80;58.50;;;;;;5096389;28;20106;-82
2022/04/11 08:55:27;;;;;;;4.88;2.00;;;10.90;56.40;;;;;;5075276;28;20485;-84
2022/04/11 08:57:53;;;;;;;1.23;1.13;;;10.60;56.10;;;;;;5072056;28;20051;-82
2022/04/11 09:00:25;;;;;;;3.90;1.70;;;10.60;57.20;;;;;;5096510;28;20038;-80
2022/04/11 09:02:51;;;;;;;;;;;10.70;55.90;;;;;;5099582;28;20066;-83
2022/04/11 09:05:25;;;;;;;6.28;1.90;;;10.70;54.50;;;;;;5089606;28;19976;-82
2022/04/11 09:07:55;;;;;;;3.50;1.70;;;10.50;54.40;;;;;;5068711;28;20096;-82
2022/04/11 09:10:29;;;;;;;3.95;1.42;;;10.50;54.30;;;;;;5087205;28;20046;-84
2022/04/11 09:13:00;;;;;;;2.97;1.90;;;10.80;54.40;;;;;;5088703;28;20020;-83
2022/04/11 09:15:27;;;;;;;1.90;1.40;;;11.00;53.20;;;;;;5088272;28;20439;-83
2022/04/11 09:17:55;;;;;;;2.55;1.60;;;11.00;53.70;;;;;;5066074;28;20447;-83
2022/04/11 09:20:25;;;;;;;3.33;1.55;;;11.10;52.70;;;;;;5065079;28;20036;-83
2022/04/11 09:22:51;;;;;;;1.83;1.27;;;11.30;52.50;;;;;;5064443;28;20032;-82
2022/04/11 09:25:18;;;;;;;2.22;1.42;;;11.50;52.30;;;;;;5064703;28;20027;-82
2022/04/11 09:27:45;;;;;;;3.35;1.70;;;11.70;52.20;;;;;;5046396;28;20049;-83
2022/04/11 09:30:26;;;;;;;5.40;1.90;;;11.90;51.80;;;;;;5079435;28;20063;-83
2022/04/11 09:32:58;;;;;;;4.00;1.80;;;11.70;52.20;;;;;;5087375;28;20025;-82
2022/04/11 09:35:28;;;;;;;2.63;1.45;;;11.60;51.70;;;;;;5095992;28;20017;-83
2022/04/11 09:38:15;;;;;;;2.78;1.65;;;11.60;53.00;;;;;;5086314;28;20040;-83
2022/04/11 09:40:52;;;;;;;2.17;1.60;;;11.90;52.90;;;;;;5079840;28;20028;-84
2022/04/11 09:43:27;;;;;;;1.73;1.10;;;12.10;52.00;;;;;;5080887;28;20031;-84
2022/04/11 09:45:53;;;;;;;1.83;1.67;;;12.50;51.50;;;;;;5081913;28;20040;-83
2022/04/11 09:48:27;;;;;;;4.32;1.60;;;12.40;51.30;;;;;;5080210;28;20154;-84
2022/04/11 09:50:55;;;;;;;2.35;1.23;;;12.70;51.40;;;;;;5067991;28;20053;-84
2022/04/11 09:53:29;;;;;;;4.85;1.67;;;12.70;51.20;;;;;;5063350;28;20025;-84
2022/04/11 09:55:55;;;;;;;3.17;1.50;;;12.60;50.00;;;;;;5076951;28;20169;-83
2022/04/11 09:58:23;;;;;;;2.63;1.35;;;12.50;50.90;;;;;;5088346;28;20035;-84
2022/04/11 10:00:50;;;;;;;1.77;1.60;;;12.40;50.30;;;;;;5082347;28;20055;-84
2022/04/11 10:03:25;;;;;;;3.83;1.92;;;12.30;50.50;;;;;;5094330;28;20051;-83
2022/04/11 10:05:51;;;;;;;2.50;1.60;;;12.30;50.90;;;;;;5076139;28;20031;-84
2022/04/11 10:08:19;;;;;;;1.67;1.13;;;12.60;50.60;;;;;;5055059;28;20020;-83
2022/04/11 10:10:44;;;;;;;1.90;1.20;;;13.00;49.30;;;;;;5082885;28;20111;-85
2022/04/11 10:13:12;;;;;;;2.38;1.30;;;13.30;48.60;;;;;;5086310;28;20040;-84
2022/04/11 10:15:41;;;;;;;1.27;1.10;;;13.70;47.80;;;;;;5066210;28;20033;-84
2022/04/11 10:18:08;;;;;;;3.40;1.58;;;13.70;46.90;;;;;;5075218;28;20036;-83
2022/04/11 10:20:36;;;;;;;1.92;1.00;;;13.60;46.80;;;;;;5055392;28;20073;-83
2022/04/11 10:23:31;;;;;;;1.55;1.30;;;13.70;47.50;;;;;;5083406;28;20063;-83
2022/04/11 10:26:03;;;;;;;1.40;1.13;;;14.00;47.10;;;;;;5059847;28;20044;-82
2022/04/11 10:28:30;;;;;;;3.15;1.70;;;14.00;46.90;;;;;;5082315;28;20050;-82
2022/04/11 10:31:10;;;;;;;1.98;1.42;;;14.00;45.90;;;;;;5086288;28;20017;-81
2022/04/11 10:33:47;;;;;;;3.47;1.83;;;13.80;46.90;;;;;;5097189;28;20076;-83
2022/04/11 10:36:34;;;;;;;2.22;1.30;;;13.60;46.80;;;;;;5082919;28;20033;-83
2022/04/11 10:39:15;;;;;;;4.70;2.22;;;13.50;47.50;;;;;;5057769;28;20036;-84
2022/04/11 10:41:56;;;;;;;2.78;1.63;;;13.50;47.60;;;;;;5063931;28;20039;-83
2022/04/11 10:44:50;;;;;;;2.63;1.48;;;13.50;47.90;;;;;;5081754;28;20029;-84
2022/04/11 10:47:16;;;;;;;3.05;1.63;;;13.60;49.40;;;;;;5070404;28;20242;-83
2022/04/11 10:49:48;;;;;;;2.70;1.30;;;13.70;47.70;;;;;;5065552;28;20028;-83
2022/04/11 10:52:36;;;;;;;1.65;1.38;;;13.60;47.60;;;;;;5073121;28;20033;-83
2022/04/11 10:55:10;;;;;;;1.48;1.38;;;13.60;48.30;;;;;;5074608;28;20070;-82
2022/04/11 10:57:41;;;;;;;1.58;1.30;;;13.80;48.20;;;;;;5072378;28;20035;-82
2022/04/11 11:00:14;;;;;;;3.10;1.50;;;14.10;46.80;;;;;;5051196;28;20381;-84
2022/04/11 11:02:52;;;;;;;1.48;1.30;;;14.00;47.00;;;;;;5068858;28;20044;-84
2022/04/11 11:05:28;;;;;;;1.25;1.15;;;14.00;46.90;;;;;;5089881;28;20029;-85
2022/04/11 11:08:10;;;;;;;2.55;1.67;;;14.10;46.90;;;;;;5064092;28;20028;-84
2022/04/11 11:10:51;;;;;;;3.58;1.55;;;14.30;46.60;;;;;;5063964;28;20027;-84
2022/04/11 11:13:24;;;;;;;2.25;1.70;;;14.30;46.30;;;;;;5059941;28;20413;-85
2022/04/11 11:15:50;;;;;;;3.97;1.40;;;14.40;45.90;;;;;;5059473;28;20033;-84
2022/04/11 11:18:16;;;;;;;2.33;1.13;;;14.40;45.70;;;;;;5058950;28;20027;-84
2022/04/11 11:20:52;;;;;;;1.20;1.10;;;14.40;44.80;;;;;;5059238;28;20028;-85
2022/04/11 11:23:27;;;;;;;4.18;1.42;;;14.40;44.90;;;;;;5081339;28;20028;-84
2022/04/11 11:25:54;;;;;;;3.90;1.55;;;14.50;44.30;;;;;;5095672;28;20084;-83
2022/04/11 11:28:20;;;;;;;1.25;1.00;;;14.60;44.50;;;;;;5072421;28;20057;-81
2022/04/11 11:30:46;;;;;;;1.20;1.10;;;14.80;44.40;;;;;;5064713;28;20021;-82
2022/04/11 11:33:15;;;;;;;0.88;0.88;;;14.90;43.20;;;;;;5065578;28;20021;-85
2022/04/11 11:36:08;;;;;;;1.95;1.02;;;15.10;43.10;;;;;;5079297;28;20046;-85
2022/04/11 11:38:34;;;;;;;3.13;1.58;;;15.50;42.30;;;;;;5073377;28;20048;-86
2022/04/11 11:41:03;;;;;;;2.45;1.10;;;15.50;42.90;;;;;;5083699;28;20032;-84
2022/04/11 11:43:30;;;;;;;4.07;0.95;;;15.60;44.30;;;;;;5079014;28;20020;-84
2022/04/11 11:46:00;;;;;;;1.05;0.93;;;15.90;43.60;;;;;;5074495;28;20116;-84
2022/04/11 11:48:31;;;;;;;2.58;1.10;;;15.90;41.80;;;;;;5058668;28;20116;-84
2022/04/11 11:51:01;;;;;;;0.70;0.70;;;16.00;41.60;;;;;;5067185;28;20075;-84
2022/04/11 11:53:50;;;;;;;1.17;0.70;;;16.30;41.30;;;;;;5059439;28;20021;-85
2022/04/11 11:56:17;;;;;;;1.05;0.98;;;16.40;41.50;;;;;;5043682;28;20035;-85
2022/04/11 11:58:43;;;;;;;1.33;0.60;;;16.50;41.60;;;;;;5062452;28;20529;-84
2022/04/11 12:01:13;;;;;;;4.15;1.30;;;16.60;40.30;;;;;;5061800;28;20029;-85
2022/04/11 12:06:29;;;;;;;2.80;1.10;;;16.60;40.40;;;;;;5062081;28;20048;-83
2022/04/11 12:09:00;;;;;;;3.33;1.92;;;16.30;39.70;;;;;;5062767;28;20020;-83
2022/04/11 12:11:27;;;;;;;1.17;1.10;;;16.10;40.70;;;;;;5064773;28;20389;-82
2022/04/11 12:14:00;;;;;;;5.90;1.35;;;15.90;40.20;;;;;;5061479;28;20508;-85
2022/04/11 12:16:27;;;;;;;1.45;1.25;;;15.70;41.40;;;;;;5061504;28;20029;-82
2022/04/11 12:18:54;;;;;;;2.22;1.25;;;15.70;41.30;;;;;;5060506;28;20017;-86
2022/04/11 12:21:38;;;;;;;0.70;0.70;;;15.50;42.00;;;;;;5046092;28;20029;-83
2022/04/11 12:24:06;;;;;;;1.13;1.02;;;15.60;42.30;;;;;;5083231;28;20054;-84
2022/04/11 12:26:37;;;;;;;2.10;1.33;;;15.80;40.40;;;;;;5087126;28;20031;-83
2022/04/11 12:29:11;;;;;;;2.35;1.23;;;15.80;40.60;;;;;;5092268;28;20020;-84
2022/04/11 12:31:39;;;;;;;1.90;1.10;;;15.80;40.40;;;;;;5085848;28;20051;-84
2022/04/11 12:34:12;;;;;;;0.63;0.63;;;15.80;40.70;;;;;;5067049;28;20511;-84
2022/04/11 12:37:01;;;;;;;2.95;1.33;;;16.10;40.10;;;;;;5074894;28;20012;-83
2022/04/11 12:39:27;;;;;;;2.42;1.15;;;16.40;38.90;;;;;;5073599;28;20105;-83
2022/04/11 12:41:53;;;;;;;1.75;0.95;;;16.30;39.20;;;;;;5072806;28;20021;-83
2022/04/11 12:44:21;;;;;;;1.92;0.90;;;16.20;39.80;;;;;;5065497;28;20055;-83
2022/04/11 12:46:47;;;;;;;1.88;0.90;;;16.40;39.50;;;;;;5063137;28;20025;-83
2022/04/11 12:49:18;;;;;;;4.05;1.08;;;16.60;39.20;;;;;;5063616;28;20017;-83
2022/04/11 12:51:57;;;;;;;2.60;1.40;;;16.50;37.80;;;;;;5072952;28;20081;-83
2022/04/11 12:54:23;;;;;;;3.08;1.20;;;16.20;38.30;;;;;;5085942;28;20407;-83
2022/04/11 12:56:53;;;;;;;3.30;1.38;;;15.90;38.70;;;;;;5067196;28;20111;-83
2022/04/11 12:59:37;;;;;;;7.18;1.27;;;16.00;38.70;;;;;;5088408;28;20013;-83
2022/04/11 13:02:02;;;;;;;7.93;1.45;;;15.90;39.40;;;;;;5091840;28;20021;-84
2022/04/11 13:04:28;;;;;;;1.75;0.90;;;16.00;39.10;;;;;;5073974;28;20021;-83
2022/04/11 13:06:54;;;;;;;1.60;1.10;;;15.90;39.20;;;;;;5081779;28;20036;-84
2022/04/11 13:09:22;;;;;;;1.10;1.00;;;15.90;39.50;;;;;;5084211;28;20023;-84
2022/04/11 13:11:48;;;;;;;1.83;1.25;;;16.30;39.50;;;;;;5086747;28;20024;-82
2022/04/11 13:14:15;;;;;;;1.85;1.00;;;16.60;38.80;;;;;;5085402;28;20044;-83
2022/04/11 13:19:25;;;;;;;5.82;0.88;;;16.70;38.40;;;;;;5086079;28;20026;-83